Airfield :
LOGIN :

Register | Disclaimer

   EN    FR    IT 

 










Legend :    VFR   Marginal VFR   IFR   Intensive IFR   Very Intensive IFR
Visi :
Ceiling :
>= 8 km
>= 3000ft
5 to 8 km
1000 to 3000 ft
1500m to 5 km
500 to 1000 ft
800 to 1500m
200 to 500 ft
< 800m
< 200 ft
Symbols :   Thunderstorms  Fog  Heavy snow  Heavy precipitations  Wind > 20 kt
SIGMETs :     Misc.  Thunderstorms  Icing  Turbulence  Mountain Waves  Volcanic Ashes






- Airport Elevation : 84 ft


LFBC - Cazaux

CURRENT METAR :
  • 150530Z AUTO 02007KT CAVOK 03/M03 Q1023 NOSIG

EXPIRED METARs :
  • 150500Z AUTO 02008KT CAVOK 04/M03 Q1023 NOSIG
  • 150430Z AUTO 02007KT CAVOK 04/M03 Q1022
  • 150400Z AUTO 03006KT CAVOK 04/M03 Q1022
  • 150330Z AUTO 03006KT CAVOK 05/M03 Q1022
  • 150300Z AUTO 03007KT CAVOK 05/M03 Q1022

TAF AMD TAF LFBC
Valid from the 15 at 04:00 until the 16 at 03:00 UTC


150427Z 1504/1603 03006KT CAVOK



MET'MAP, your aeronautical weather chart ! - Copyright ORBIFLY December 2007 - Disclaimer

ORBIFLY MET'MAP TEAM :

Programming & Development : Alexandra Zaïnal
Concept & original design : Baudouin d'Aumeries
Assistance for programming : Marc-Olivier Méhu
Technical & hardware support : Manuel Goepfert

Contact : metmap@orbifly.com




SOURCES & CREDITS :

   NOAA